^^
Your Local Weather - Clay, NY Station Historical Data
Daily Summary for February 23, 2017 Units:  English    Metric   Both
« Previous Day
Next Day »
Daily Weekly Monthly Yearly Custom
  High: Low: Average:
Temperature: 69.6 °F 39.1 °F 52.8 °F
Dew Point: 52.5 °F 35.3 °F 44.2 °F
Humidity: 88% 53% 74%
Wind Speed: 8.0mph 0.0mph 2mph
Wind Gust: 15.0mph - -
Wind- - SW
Pressure: 29.86 in 29.61 in -
Precipitation: 0.00 in    
Historical Graphs
 
 
Tabular Data for February 23, 2017
Time Temperature Dew Point Pressure Wind Wind Speed Wind Gust Humidity Rainfall Rate (Hourly) solar
00:04 43.0 °F 37.3 °F 29.76 in Calm   2.0 mph 80% 0.00 in 0 W/m2
00:10 43.4 °F 38.0 °F 29.76 in Calm     81% 0.00 in 0 W/m2
00:15 43.8 °F 38.3 °F 29.76 in Calm   1.0 mph 81% 0.00 in 0 W/m2
00:22 43.8 °F 38.0 °F 29.76 in Calm     80% 0.00 in 0 W/m2
00:28 43.7 °F 37.9 °F 29.76 in Calm     80% 0.00 in 0 W/m2
00:36 43.4 °F 37.6 °F 29.76 in Calm     80% 0.00 in 0 W/m2
00:42 43.1 °F 37.7 °F 29.76 in Calm     81% 0.00 in 0 W/m2
00:48 43.2 °F 37.8 °F 29.76 in Calm     81% 0.00 in 0 W/m2
00:54 43.3 °F 37.9 °F 29.76 in Calm     81% 0.00 in 0 W/m2
00:59 43.5 °F 38.1 °F 29.76 in Calm     81% 0.00 in 0 W/m2
01:06 43.4 °F 37.6 °F 29.76 in Calm     80% 0.00 in 0 W/m2
01:12 43.0 °F 37.3 °F 29.75 in Calm     80% 0.00 in 0 W/m2
01:18 42.7 °F 37.6 °F 29.75 in Calm   1.0 mph 82% 0.00 in 0 W/m2
01:24 42.7 °F 37.6 °F 29.75 in NE 1.0 mph 1.0 mph 82% 0.00 in 0 W/m2
01:30 42.8 °F 37.7 °F 29.75 in Calm     82% 0.00 in 0 W/m2
01:35 42.4 °F 37.3 °F 29.74 in NE 1.0 mph 2.0 mph 82% 0.00 in 0 W/m2
01:42 42.2 °F 37.4 °F 29.74 in Calm   1.0 mph 83% 0.00 in 0 W/m2
01:48 42.2 °F 37.7 °F 29.75 in Calm   1.0 mph 84% 0.00 in 0 W/m2
01:54 42.3 °F 37.5 °F 29.74 in Calm     83% 0.00 in 0 W/m2
02:00 42.1 °F 37.3 °F 29.74 in NE 1.0 mph 1.0 mph 83% 0.00 in 0 W/m2
02:06 42.6 °F 38.1 °F 29.74 in NE 1.0 mph 1.0 mph 84% 0.00 in 0 W/m2
02:12 42.4 °F 37.3 °F 29.73 in NE 1.0 mph 2.0 mph 82% 0.00 in 0 W/m2
02:18 42.2 °F 37.4 °F 29.73 in NE 1.0 mph 2.0 mph 83% 0.00 in 0 W/m2
02:23 42.2 °F 37.4 °F 29.73 in Calm   1.0 mph 83% 0.00 in 0 W/m2
02:29 42.0 °F 37.2 °F 29.73 in Calm     83% 0.00 in 0 W/m2
02:36 42.0 °F 37.2 °F 29.73 in Calm   1.0 mph 83% 0.00 in 0 W/m2
02:42 42.0 °F 37.2 °F 29.73 in Calm     83% 0.00 in 0 W/m2
02:48 41.3 °F 36.5 °F 29.72 in NE 1.0 mph 2.0 mph 83% 0.00 in 0 W/m2
02:54 41.2 °F 36.7 °F 29.72 in NE 1.0 mph 1.0 mph 84% 0.00 in 0 W/m2
03:00 40.9 °F 36.4 °F 29.72 in NE 1.0 mph 2.0 mph 84% 0.00 in 0 W/m2
03:06 41.0 °F 36.5 °F 29.72 in NE 1.0 mph 2.0 mph 84% 0.00 in 0 W/m2
03:12 40.5 °F 36.0 °F 29.72 in Calm   1.0 mph 84% 0.00 in 0 W/m2
03:18 40.2 °F 36.1 °F 29.72 in Calm   1.0 mph 85% 0.00 in 0 W/m2
03:24 39.9 °F 35.8 °F 29.71 in Calm     85% 0.00 in 0 W/m2
03:30 39.8 °F 36.0 °F 29.71 in Calm     86% 0.00 in 0 W/m2
03:35 39.6 °F 35.8 °F 29.72 in Calm   1.0 mph 86% 0.00 in 0 W/m2
03:42 39.6 °F 35.8 °F 29.72 in Calm     86% 0.00 in 0 W/m2
03:48 39.3 °F 35.5 °F 29.72 in Calm     86% 0.00 in 0 W/m2
03:54 39.2 °F 35.4 °F 29.72 in Calm     86% 0.00 in 0 W/m2
04:00 39.1 °F 35.3 °F 29.72 in Calm     86% 0.00 in 0 W/m2
04:06 39.7 °F 36.4 °F 29.72 in Calm   2.0 mph 88% 0.00 in 0 W/m2
04:12 39.7 °F 36.1 °F 29.72 in Calm     87% 0.00 in 0 W/m2
04:18 39.8 °F 36.2 °F 29.73 in Calm     87% 0.00 in 0 W/m2
04:24 39.7 °F 36.1 °F 29.72 in Calm     87% 0.00 in 0 W/m2
04:30 39.6 °F 36.0 °F 29.72 in Calm     87% 0.00 in 0 W/m2
04:35 40.3 °F 37.0 °F 29.73 in Calm     88% 0.00 in 0 W/m2
04:42 40.5 °F 36.9 °F 29.72 in Calm     87% 0.00 in 0 W/m2
04:48 40.6 °F 37.0 °F 29.72 in Calm     87% 0.00 in 0 W/m2
04:54 40.6 °F 36.7 °F 29.72 in Calm     86% 0.00 in 0 W/m2
04:59 40.5 °F 36.6 °F 29.72 in Calm     86% 0.00 in 0 W/m2
05:05 40.4 °F 36.5 °F 29.72 in Calm     86% 0.00 in 0 W/m2
05:12 40.3 °F 36.4 °F 29.71 in Calm   1.0 mph 86% 0.00 in 0 W/m2
05:18 40.4 °F 36.8 °F 29.71 in Calm   1.0 mph 87% 0.00 in 0 W/m2
05:24 40.7 °F 37.1 °F 29.71 in Calm     87% 0.00 in 0 W/m2
05:29 41.0 °F 37.7 °F 29.71 in Calm     88% 0.00 in 0 W/m2
05:36 41.2 °F 37.6 °F 29.72 in Calm     87% 0.00 in 0 W/m2
05:42 41.6 °F 38.0 °F 29.71 in Calm     87% 0.00 in 0 W/m2
05:48 41.8 °F 38.2 °F 29.71 in Calm     87% 0.00 in 0 W/m2
05:54 41.8 °F 37.9 °F 29.71 in Calm     86% 0.00 in 0 W/m2
05:59 41.8 °F 37.9 °F 29.71 in Calm     86% 0.00 in 0 W/m2
06:05 41.8 °F 37.9 °F 29.72 in Calm     86% 0.00 in 0 W/m2
06:12 41.7 °F 37.5 °F 29.71 in Calm     85% 0.00 in 0 W/m2
06:18 41.5 °F 37.6 °F 29.71 in Calm     86% 0.00 in 0 W/m2
06:24 41.8 °F 38.2 °F 29.71 in Calm     87% 0.00 in 0 W/m2
06:29 42.2 °F 38.6 °F 29.70 in Calm     87% 0.00 in 0 W/m2
06:36 42.9 °F 39.3 °F 29.70 in Calm   1.0 mph 87% 0.00 in 0 W/m2
06:42 43.3 °F 39.4 °F 29.70 in Calm     86% 0.00 in 0 W/m2
06:48 44.0 °F 40.1 °F 29.70 in Calm   1.0 mph 86% 0.00 in 0 W/m2
06:53 44.1 °F 39.9 °F 29.69 in Calm   1.0 mph 85% 0.00 in 0 W/m2
07:00 44.3 °F 39.8 °F 29.69 in Calm     84% 0.00 in 5 W/m2
07:05 44.7 °F 40.2 °F 29.69 in Calm     84% 0.00 in 7 W/m2
07:12 45.1 °F 40.6 °F 29.69 in Calm     84% 0.00 in 11 W/m2
07:18 45.1 °F 40.2 °F 29.69 in Calm     83% 0.00 in 14 W/m2
07:23 45.1 °F 40.2 °F 29.69 in Calm     83% 0.00 in 14 W/m2
07:29 44.9 °F 39.7 °F 29.69 in Calm     82% 0.00 in 16 W/m2
07:36 44.7 °F 39.9 °F 29.69 in Calm     83% 0.00 in 19 W/m2
07:42 44.8 °F 40.0 °F 29.70 in Calm     83% 0.00 in 35 W/m2
07:48 44.6 °F 40.1 °F 29.68 in NE 1.0 mph 2.0 mph 84% 0.00 in 42 W/m2
07:54 45.1 °F 40.9 °F 29.68 in NE 1.0 mph 1.0 mph 85% 0.00 in 65 W/m2
08:00 45.8 °F 41.2 °F 29.68 in Calm     84% 0.00 in 67 W/m2
08:06 46.0 °F 41.4 °F 29.69 in Calm     84% 0.00 in 72 W/m2
08:12 46.4 °F 41.5 °F 29.69 in Calm     83% 0.00 in 134 W/m2
08:18 46.6 °F 41.1 °F 29.68 in NE 1.0 mph 2.0 mph 81% 0.00 in 39 W/m2
08:23 46.6 °F 41.1 °F 29.68 in NE 1.0 mph 2.0 mph 81% 0.00 in 93 W/m2
08:30 47.4 °F 41.9 °F 29.68 in Calm   1.0 mph 81% 0.00 in 211 W/m2
08:36 48.4 °F 42.8 °F 29.68 in NE 1.0 mph 2.0 mph 81% 0.00 in 193 W/m2
08:42 50.3 °F 44.4 °F 29.68 in NE 1.0 mph 1.0 mph 80% 0.00 in 248 W/m2
08:48 53.2 °F 45.5 °F 29.68 in Calm   2.0 mph 75% 0.00 in 299 W/m2
08:54 56.1 °F 46.4 °F 29.68 in SSE 1.0 mph 2.0 mph 70% 0.00 in 155 W/m2
08:59 57.6 °F 46.3 °F 29.68 in SSW 2.0 mph 2.0 mph 66% 0.00 in 176 W/m2
09:05 58.3 °F 46.6 °F 29.68 in SSW 2.0 mph 4.0 mph 65% 0.00 in 181 W/m2
09:12 58.6 °F 46.9 °F 29.68 in SSW 3.0 mph 6.0 mph 65% 0.00 in 88 W/m2
09:18 58.5 °F 46.4 °F 29.68 in South 4.0 mph 8.0 mph 64% 0.00 in 63 W/m2
09:24 58.4 °F 46.7 °F 29.68 in South 5.0 mph 6.0 mph 65% 0.00 in 91 W/m2
09:30 58.5 °F 46.8 °F 29.68 in South 4.0 mph 4.0 mph 65% 0.00 in 146 W/m2
09:36 58.7 °F 47.0 °F 29.68 in WSW 4.0 mph 5.0 mph 65% 0.00 in 98 W/m2
09:42 58.8 °F 47.1 °F 29.68 in SSW 4.0 mph 7.0 mph 65% 0.00 in 151 W/m2
09:48 59.2 °F 47.8 °F 29.68 in SW 4.0 mph 7.0 mph 66% 0.00 in 237 W/m2
09:53 59.8 °F 47.6 °F 29.68 in SW 3.0 mph 4.0 mph 64% 0.00 in 149 W/m2
09:59 59.6 °F 47.4 °F 29.68 in South 4.0 mph 5.0 mph 64% 0.00 in 172 W/m2
10:06 59.6 °F 47.8 °F 29.68 in SW 6.0 mph 9.0 mph 65% 0.00 in 144 W/m2
10:12 59.7 °F 47.9 °F 29.68 in SW 5.0 mph 6.0 mph 65% 0.00 in 144 W/m2
10:18 60.2 °F 48.4 °F 29.68 in SW 5.0 mph 13.0 mph 65% 0.00 in 199 W/m2
10:24 60.2 °F 48.4 °F 29.68 in SSW 6.0 mph 8.0 mph 65% 0.00 in 167 W/m2
10:29 60.1 °F 48.7 °F 29.67 in SW 6.0 mph 6.0 mph 66% 0.00 in 121 W/m2
10:36 59.9 °F 48.5 °F 29.67 in South 6.0 mph 8.0 mph 66% 0.00 in 98 W/m2
10:42 59.9 °F 48.9 °F 29.67 in South 5.0 mph 9.0 mph 67% 0.00 in 176 W/m2
10:48 60.1 °F 49.1 °F 29.67 in SSW 5.0 mph 9.0 mph 67% 0.00 in 225 W/m2
10:53 60.4 °F 49.4 °F 29.66 in SW 5.0 mph 6.0 mph 67% 0.00 in 258 W/m2
10:59 60.3 °F 49.3 °F 29.66 in SW 5.0 mph 10.0 mph 67% 0.00 in 163 W/m2
11:03 61.0 °F 50.0 °F 29.66 in SSW 5.0 mph 10.0 mph 67% 0.00 in 585 W/m2
11:10 62.7 °F 50.3 °F 29.65 in SSE 4.0 mph 5.0 mph 64% 0.00 in 608 W/m2
11:15 63.3 °F 50.5 °F 29.65 in SSW 5.0 mph 8.0 mph 63% 0.00 in 580 W/m2
11:22 63.6 °F 50.3 °F 29.65 in SE 6.0 mph 15.0 mph 62% 0.00 in 589 W/m2
11:28 64.2 °F 50.9 °F 29.65 in SSW 6.0 mph 15.0 mph 62% 0.00 in 599 W/m2
11:34 64.3 °F 50.6 °F 29.64 in South 6.0 mph 9.0 mph 61% 0.00 in 601 W/m2
11:39 64.3 °F 50.6 °F 29.63 in SSW 8.0 mph 8.0 mph 61% 0.00 in 601 W/m2
11:46 65.0 °F 51.2 °F 29.63 in SSW 7.0 mph 8.0 mph 61% 0.00 in 684 W/m2
11:52 64.9 °F 50.7 °F 29.63 in SW 7.0 mph 12.0 mph 60% 0.00 in 671 W/m2
11:58 65.5 °F 51.7 °F 29.63 in SSE 6.0 mph 12.0 mph 61% 0.00 in 780 W/m2
12:04 65.5 °F 50.8 °F 29.63 in SW 6.0 mph 7.0 mph 59% 0.00 in 200 W/m2
12:09 64.7 °F 50.5 °F 29.63 in SSE 6.0 mph 6.0 mph 60% 0.00 in 132 W/m2
12:15 64.2 °F 50.5 °F 29.63 in SSW 7.0 mph 7.0 mph 61% 0.00 in 192 W/m2
12:22 64.2 °F 50.5 °F 29.62 in SW 6.0 mph 8.0 mph 61% 0.00 in 195 W/m2
12:28 64.3 °F 51.0 °F 29.62 in SSE 6.0 mph 8.0 mph 62% 0.00 in 192 W/m2
12:34 64.5 °F 51.2 °F 29.62 in SSW 6.0 mph 11.0 mph 62% 0.00 in 90 W/m2
12:39 64.4 °F 50.7 °F 29.62 in South 6.0 mph 8.0 mph 61% 0.00 in 107 W/m2
12:46 64.3 °F 51.0 °F 29.62 in WNW 5.0 mph 8.0 mph 62% 0.00 in 65 W/m2
12:52 64.2 °F 50.9 °F 29.62 in South 5.0 mph 5.0 mph 62% 0.00 in 121 W/m2
12:58 64.5 °F 51.2 °F 29.61 in South 5.0 mph 12.0 mph 62% 0.00 in 204 W/m2
13:04 65.3 °F 51.9 °F 29.61 in WSW 4.0 mph 10.0 mph 62% 0.00 in 355 W/m2
13:09 65.8 °F 51.5 °F 29.62 in West 4.0 mph 4.0 mph 60% 0.00 in 223 W/m2
13:16 65.8 °F 51.5 °F 29.61 in South 5.0 mph 5.0 mph 60% 0.00 in 274 W/m2
13:22 66.5 °F 51.7 °F 29.61 in WNW 6.0 mph 11.0 mph 59% 0.00 in 169 W/m2
13:28 66.5 °F 51.7 °F 29.61 in WSW 7.0 mph 11.0 mph 59% 0.00 in 687 W/m2
13:34 67.6 °F 52.3 °F 29.62 in West 6.0 mph 11.0 mph 58% 0.00 in 255 W/m2
13:39 67.2 °F 51.4 °F 29.62 in West 4.0 mph 5.0 mph 57% 0.00 in 186 W/m2
13:45 66.7 °F 51.5 °F 29.62 in SW 5.0 mph 7.0 mph 58% 0.00 in 248 W/m2
13:52 66.6 °F 51.8 °F 29.62 in SSW 5.0 mph 5.0 mph 59% 0.00 in 116 W/m2
13:58 66.5 °F 51.7 °F 29.62 in SW 3.0 mph 6.0 mph 59% 0.00 in 172 W/m2
14:03 66.4 °F 52.1 °F 29.62 in SSE 3.0 mph 3.0 mph 60% 0.00 in 109 W/m2
14:10 68.0 °F 52.2 °F 29.61 in SW 4.0 mph 7.0 mph 57% 0.00 in 538 W/m2
14:15 68.6 °F 52.3 °F 29.62 in SSW 4.0 mph 7.0 mph 56% 0.00 in 496 W/m2
14:22 68.4 °F 52.1 °F 29.62 in West 4.0 mph 5.0 mph 56% 0.00 in 204 W/m2
14:28 68.4 °F 52.1 °F 29.62 in SSW 4.0 mph 6.0 mph 56% 0.00 in 186 W/m2
14:34 68.9 °F 52.1 °F 29.62 in SW 5.0 mph 6.0 mph 55% 0.00 in 327 W/m2
14:39 69.6 °F 51.7 °F 29.62 in WSW 4.0 mph 5.0 mph 53% 0.00 in 561 W/m2
14:46 69.0 °F 51.7 °F 29.62 in WSW 4.0 mph 5.0 mph 54% 0.00 in 181 W/m2
14:52 68.3 °F 51.5 °F 29.62 in SW 4.0 mph 8.0 mph 55% 0.00 in 162 W/m2
14:58 68.1 °F 51.3 °F 29.63 in West 4.0 mph 8.0 mph 55% 0.00 in 151 W/m2
15:04 67.9 °F 51.1 °F 29.63 in SW 3.0 mph 5.0 mph 55% 0.00 in 95 W/m2
15:10 67.8 °F 51.0 °F 29.63 in WSW 3.0 mph 3.0 mph 55% 0.00 in 44 W/m2
15:15 66.2 °F 51.4 °F 29.65 in NNW 3.0 mph 9.0 mph 59% 0.00 in 39 W/m2
15:22 64.0 °F 51.6 °F 29.65 in NNW 5.0 mph 5.0 mph 64% 0.00 in 53 W/m2
15:28 62.6 °F 51.5 °F 29.65 in NW 4.0 mph 6.0 mph 67% 0.00 in 97 W/m2
15:34 62.0 °F 51.3 °F 29.65 in NNW 5.0 mph 7.0 mph 68% 0.00 in 58 W/m2
15:40 61.6 °F 51.3 °F 29.65 in NW 4.0 mph 4.0 mph 69% 0.00 in 149 W/m2
15:45 62.4 °F 52.5 °F 29.66 in NW 4.0 mph 5.0 mph 70% 0.00 in 343 W/m2
15:52 62.4 °F 51.7 °F 29.66 in NNW 4.0 mph 6.0 mph 68% 0.00 in 90 W/m2
15:58 62.2 °F 51.9 °F 29.66 in NW 4.0 mph 6.0 mph 69% 0.00 in 264 W/m2
16:03 62.2 °F 52.3 °F 29.66 in NNW 3.0 mph 4.0 mph 70% 0.00 in 223 W/m2
16:10 62.3 °F 52.0 °F 29.67 in NW 3.0 mph 3.0 mph 69% 0.00 in 297 W/m2
16:16 62.6 °F 51.9 °F 29.67 in NW 3.0 mph 3.0 mph 68% 0.00 in 90 W/m2
16:22 62.1 °F 51.8 °F 29.67 in NNW 3.0 mph 5.0 mph 69% 0.00 in 65 W/m2
16:28 61.7 °F 51.4 °F 29.68 in NNW 2.0 mph 5.0 mph 69% 0.00 in 60 W/m2
16:34 61.5 °F 51.6 °F 29.68 in WNW 2.0 mph 4.0 mph 70% 0.00 in 84 W/m2
16:40 61.5 °F 51.6 °F 29.68 in WNW 1.0 mph 2.0 mph 70% 0.00 in 67 W/m2
16:46 61.5 °F 51.6 °F 29.68 in Calm   2.0 mph 70% 0.00 in 88 W/m2
16:52 61.7 °F 51.8 °F 29.68 in WNW 1.0 mph 1.0 mph 70% 0.00 in 77 W/m2
16:58 61.8 °F 51.9 °F 29.69 in Calm   1.0 mph 70% 0.00 in 63 W/m2
17:03 61.8 °F 51.9 °F 29.69 in Calm   1.0 mph 70% 0.00 in 49 W/m2
17:10 61.7 °F 51.8 °F 29.69 in Calm     70% 0.00 in 16 W/m2
17:15 62.1 °F 51.0 °F 29.69 in WNW 2.0 mph 6.0 mph 67% 0.00 in 19 W/m2
17:22 63.1 °F 50.3 °F 29.70 in WSW 5.0 mph 5.0 mph 63% 0.00 in 23 W/m2
17:28 63.1 °F 50.3 °F 29.71 in WNW 4.0 mph 5.0 mph 63% 0.00 in 21 W/m2
17:34 62.9 °F 49.7 °F 29.71 in NW 3.0 mph 5.0 mph 62% 0.00 in 16 W/m2
17:40 62.7 °F 49.5 °F 29.71 in WNW 4.0 mph 6.0 mph 62% 0.00 in 11 W/m2
17:45 62.6 °F 49.4 °F 29.71 in WNW 5.0 mph 6.0 mph 62% 0.00 in 7 W/m2
17:52 62.3 °F 49.1 °F 29.71 in WNW 4.0 mph 5.0 mph 62% 0.00 in 0 W/m2
17:58 61.8 °F 49.1 °F 29.72 in West 3.0 mph 5.0 mph 63% 0.00 in 0 W/m2
18:04 61.5 °F 49.2 °F 29.72 in WNW 2.0 mph 4.0 mph 64% 0.00 in 0 W/m2
18:10 61.2 °F 48.9 °F 29.72 in West 2.0 mph 2.0 mph 64% 0.00 in 0 W/m2
18:15 61.0 °F 48.7 °F 29.73 in WSW 2.0 mph 8.0 mph 64% 0.00 in 0 W/m2
18:22 60.9 °F 48.6 °F 29.73 in WNW 2.0 mph 2.0 mph 64% 0.00 in 0 W/m2
18:28 60.4 °F 48.6 °F 29.74 in NW 2.0 mph 3.0 mph 65% 0.00 in 0 W/m2
18:33 60.3 °F 48.5 °F 29.74 in West 2.0 mph 2.0 mph 65% 0.00 in 0 W/m2
18:39 60.1 °F 48.7 °F 29.74 in WNW 2.0 mph 2.0 mph 66% 0.00 in 0 W/m2
18:46 60.0 °F 48.6 °F 29.74 in West 2.0 mph 2.0 mph 66% 0.00 in 0 W/m2
18:52 59.6 °F 48.6 °F 29.74 in West 1.0 mph 1.0 mph 67% 0.00 in 0 W/m2
18:58 59.1 °F 48.5 °F 29.75 in Calm   2.0 mph 68% 0.00 in 0 W/m2
19:04 58.7 °F 48.2 °F 29.75 in Calm   1.0 mph 68% 0.00 in 0 W/m2
19:10 58.1 °F 48.0 °F 29.75 in Calm     69% 0.00 in 0 W/m2
19:15 57.5 °F 47.8 °F 29.75 in Calm     70% 0.00 in 0 W/m2
19:22 56.7 °F 47.4 °F 29.76 in Calm     71% 0.00 in 0 W/m2
19:28 56.0 °F 47.1 °F 29.76 in Calm     72% 0.00 in 0 W/m2
19:33 55.9 °F 47.7 °F 29.76 in Calm   2.0 mph 74% 0.00 in 0 W/m2
19:40 56.3 °F 48.1 °F 29.77 in West 1.0 mph 1.0 mph 74% 0.00 in 0 W/m2
19:46 56.7 °F 48.1 °F 29.77 in West 1.0 mph 1.0 mph 73% 0.00 in 0 W/m2
19:52 56.5 °F 47.6 °F 29.79 in NNW 2.0 mph 3.0 mph 72% 0.00 in 0 W/m2
19:58 55.9 °F 46.3 °F 29.79 in WNW 4.0 mph 6.0 mph 70% 0.00 in 0 W/m2
20:04 55.0 °F 45.4 °F 29.80 in NW 4.0 mph 5.0 mph 70% 0.00 in 0 W/m2
20:10 54.1 °F 44.9 °F 29.80 in NW 4.0 mph 4.0 mph 71% 0.00 in 0 W/m2
20:15 53.4 °F 44.6 °F 29.80 in WNW 3.0 mph 4.0 mph 72% 0.00 in 0 W/m2
20:22 52.8 °F 44.0 °F 29.80 in NNW 2.0 mph 2.0 mph 72% 0.00 in 0 W/m2
20:28 52.3 °F 43.9 °F 29.80 in NNW 2.0 mph 4.0 mph 73% 0.00 in 0 W/m2
20:34 51.9 °F 43.5 °F 29.81 in WNW 2.0 mph 2.0 mph 73% 0.00 in 0 W/m2
20:39 51.6 °F 43.2 °F 29.82 in WNW 1.0 mph 1.0 mph 73% 0.00 in 0 W/m2
20:46 51.1 °F 43.1 °F 29.82 in NNW 1.0 mph 3.0 mph 74% 0.00 in 0 W/m2
20:52 50.7 °F 42.7 °F 29.83 in WNW 2.0 mph 3.0 mph 74% 0.00 in 0 W/m2
20:58 50.2 °F 42.6 °F 29.83 in WNW 2.0 mph 3.0 mph 75% 0.00 in 0 W/m2
21:04 49.9 °F 42.3 °F 29.83 in NW 2.0 mph 4.0 mph 75% 0.00 in 0 W/m2
21:09 49.6 °F 42.3 °F 29.83 in NW 3.0 mph 3.0 mph 76% 0.00 in 0 W/m2
21:16 49.4 °F 42.1 °F 29.83 in NW 1.0 mph 3.0 mph 76% 0.00 in 0 W/m2
21:22 49.2 °F 42.0 °F 29.83 in WSW 1.0 mph 4.0 mph 76% 0.00 in 0 W/m2
21:28 48.9 °F 41.7 °F 29.84 in WSW 1.0 mph 4.0 mph 76% 0.00 in 0 W/m2
21:33 48.5 °F 41.6 °F 29.84 in WSW 1.0 mph 3.0 mph 77% 0.00 in 0 W/m2
21:40 48.1 °F 41.6 °F 29.84 in NNW 1.0 mph 1.0 mph 78% 0.00 in 0 W/m2
21:45 47.9 °F 41.4 °F 29.84 in NNW 1.0 mph 2.0 mph 78% 0.00 in 0 W/m2
21:52 47.8 °F 41.6 °F 29.85 in Calm     79% 0.00 in 0 W/m2
21:58 47.7 °F 41.5 °F 29.85 in Calm   1.0 mph 79% 0.00 in 0 W/m2
22:04 47.6 °F 41.4 °F 29.85 in Calm   2.0 mph 79% 0.00 in 0 W/m2
22:10 47.6 °F 41.4 °F 29.86 in Calm     79% 0.00 in 0 W/m2
22:15 47.5 °F 41.3 °F 29.86 in Calm   3.0 mph 79% 0.00 in 0 W/m2
22:22 47.4 °F 41.2 °F 29.85 in NW 1.0 mph 2.0 mph 79% 0.00 in 0 W/m2
22:28 47.3 °F 40.8 °F 29.85 in NNW 1.0 mph 2.0 mph 78% 0.00 in 0 W/m2
22:34 47.2 °F 40.7 °F 29.86 in NNW 1.0 mph 1.0 mph 78% 0.00 in 0 W/m2
22:40 46.9 °F 40.4 °F 29.85 in NNW 1.0 mph 2.0 mph 78% 0.00 in 0 W/m2
22:45 46.5 °F 40.0 °F 29.85 in NNW 2.0 mph 2.0 mph 78% 0.00 in 0 W/m2
22:52 46.1 °F 39.6 °F 29.85 in NNW 1.0 mph 1.0 mph 78% 0.00 in 0 W/m2
22:58 45.7 °F 39.6 °F 29.85 in Calm   1.0 mph 79% 0.00 in 0 W/m2
23:03 45.4 °F 39.3 °F 29.86 in Calm     79% 0.00 in 0 W/m2
23:09 45.1 °F 39.3 °F 29.86 in Calm     80% 0.00 in 0 W/m2
23:16 44.9 °F 39.1 °F 29.86 in Calm     80% 0.00 in 0 W/m2
23:22 44.7 °F 39.2 °F 29.86 in Calm     81% 0.00 in 0 W/m2
23:28 44.5 °F 39.3 °F 29.86 in Calm   1.0 mph 82% 0.00 in 0 W/m2
23:33 44.4 °F 39.2 °F 29.86 in Calm     82% 0.00 in 0 W/m2
23:39 44.1 °F 39.0 °F 29.86 in Calm     82% 0.00 in 0 W/m2
23:46 43.8 °F 38.7 °F 29.86 in Calm     82% 0.00 in 0 W/m2
23:52 43.6 °F 38.5 °F 29.86 in Calm     82% 0.00 in 0 W/m2
Country Meadow, Clay, NY, USA
Compliments of Weather Underground - 2 mb